This is the latest recevied weather packets stored in our database for station/object EFTU. If no packets are shown the sender has not sent any weather packets the latest 10 day(s).
| Time | Temp. | Humidity | Pressure | Rain* | Wind** | Luminosity | Snow |
|---|---|---|---|---|---|---|---|
| 1777135594 | 2.78° C | 53% | 996.1 hPa | - | - | - | - |
| 1777134394 | 2.78° C | 54% | 995.8 hPa | - | - | - | - |
| 1777133193 | 2.78° C | 60% | 995.5 hPa | - | - | - | - |
| 1777131993 | 2.78° C | 61% | 995.3 hPa | - | - | - | - |
| 1777130794 | 3.33° C | 57% | 994.8 hPa | - | - | - | - |
| 1777129594 | 3.33° C | 59% | 994.5 hPa | - | - | - | - |
| 1777128393 | 3.89° C | 55% | 994.2 hPa | - | - | - | - |
| 1777127194 | 3.89° C | 54% | 993.7 hPa | - | - | - | - |
| 1777125993 | 3.89° C | 55% | 993.3 hPa | - | - | - | - |
| 1777124793 | 4.44° C | 60% | 993 hPa | - | - | - | - |
| 1777123594 | 5° C | 63% | 992.8 hPa | - | - | - | - |
| 1777122393 | 4.44° C | 63% | 992.7 hPa | - | - | - | - |
| 1777121193 | 5° C | 63% | 992.6 hPa | - | - | - | - |
| 1777119993 | 5° C | 67% | 992.5 hPa | - | - | - | - |
| 1777118793 | 6.67° C | 60% | 992.2 hPa | - | - | - | - |
| 1777117593 | 8.33° C | 56% | 992.3 hPa | - | - | - | - |
| 1777116393 | 7.78° C | 57% | 992.3 hPa | - | - | - | - |
| 1777115193 | 7.78° C | 54% | 992.2 hPa | - | - | - | - |
| 1777113992 | 6.11° C | 67% | 992.4 hPa | - | - | - | - |
| 1777112792 | 6.67° C | 72% | 992.4 hPa | - | - | - | - |
| 1777111593 | 6.11° C | 72% | 992.6 hPa | - | - | - | - |
| 1777110392 | 6.67° C | 70% | 992.7 hPa | - | - | - | - |
| 1777109193 | 6.67° C | 71% | 992.9 hPa | - | - | - | - |
| 1777107993 | 7.22° C | 61% | 992.8 hPa | - | - | - | - |
| 1777106792 | 7.22° C | 59% | 992.7 hPa | - | - | - | - |
* Rain since midnight (hover to see other rain measurements)
** Current wind speed in m/s (hover to see current wind gust speed)